createdAt,value
2018-03-28T00:01:02.761Z,7.35
2018-03-28T00:02:08.565Z,7.34
2018-03-28T00:03:15.092Z,7.29
2018-03-28T00:04:20.964Z,7.25
2018-03-28T00:05:26.885Z,7.26
2018-03-28T00:06:32.638Z,7.25
2018-03-28T00:07:39.909Z,7.25
2018-03-28T00:08:45.660Z,7.21
2018-03-28T00:09:51.416Z,7.24
2018-03-28T00:10:57.168Z,7.23
2018-03-28T00:12:03.680Z,7.31
2018-03-28T00:13:09.448Z,7.33
2018-03-28T00:14:15.206Z,7.30
2018-03-28T00:15:21.717Z,7.24
2018-03-28T00:16:27.236Z,7.24
2018-03-28T00:17:33.011Z,7.29
2018-03-28T00:18:38.782Z,7.33
2018-03-28T00:19:45.364Z,7.28
2018-03-28T00:20:51.121Z,7.24
2018-03-28T00:21:56.885Z,7.11
2018-03-28T00:23:02.633Z,7.11
2018-03-28T00:24:08.424Z,7.12
2018-03-28T00:25:14.928Z,7.11
2018-03-28T00:26:20.830Z,7.23
2018-03-28T00:27:26.606Z,7.25
2018-03-28T00:28:32.353Z,7.28
2018-03-28T00:29:38.124Z,7.19
2018-03-28T00:30:43.884Z,7.20
2018-03-28T00:31:50.424Z,7.17
2018-03-28T00:32:56.174Z,7.14
2018-03-28T00:34:01.932Z,7.07
2018-03-28T00:35:08.481Z,7.06
2018-03-28T00:36:15.266Z,7.17
2018-03-28T00:37:21.030Z,7.14
2018-03-28T00:38:26.785Z,7.08
2018-03-28T00:39:32.633Z,7.02
2018-03-28T00:40:38.410Z,6.98
2018-03-28T00:41:44.937Z,6.90
2018-03-28T00:42:50.685Z,6.88
2018-03-28T00:43:57.903Z,6.89
2018-03-28T00:45:04.412Z,6.85
2018-03-28T00:46:10.199Z,6.82
2018-03-28T00:47:16.727Z,6.82
2018-03-28T00:48:22.497Z,6.84
2018-03-28T00:49:29.096Z,6.81
2018-03-28T00:50:34.844Z,6.79
2018-03-28T00:51:40.620Z,6.81
2018-03-28T00:52:47.145Z,6.76
2018-03-28T00:53:52.930Z,6.75
2018-03-28T00:54:58.712Z,6.78
2018-03-28T00:56:04.460Z,6.80
2018-03-28T00:57:10.256Z,6.81
2018-03-28T00:58:16.787Z,6.82
2018-03-28T00:59:22.553Z,6.79
2018-03-28T01:00:28.333Z,6.80
2018-03-28T01:01:34.088Z,6.78
2018-03-28T01:02:39.865Z,6.79
2018-03-28T01:03:44.993Z,6.81
2018-03-28T01:04:50.749Z,6.82
2018-03-28T01:05:57.277Z,6.80
2018-03-28T01:07:03.093Z,6.78
2018-03-28T01:08:08.899Z,6.82
2018-03-28T01:09:15.421Z,6.80
2018-03-28T01:10:21.176Z,6.82
2018-03-28T01:11:26.956Z,6.79
2018-03-28T01:12:33.469Z,6.78
2018-03-28T01:13:39.251Z,6.84
2018-03-28T01:14:45.804Z,6.82
2018-03-28T01:15:52.325Z,6.84
2018-03-28T01:16:58.079Z,6.84
2018-03-28T01:18:03.875Z,6.84
2018-03-28T01:19:09.661Z,6.88
2018-03-28T01:20:15.531Z,6.88
2018-03-28T01:21:22.068Z,6.90
2018-03-28T01:22:27.178Z,6.92
2018-03-28T01:23:32.945Z,6.87
2018-03-28T01:24:38.908Z,6.86
2018-03-28T01:25:45.429Z,6.82
2018-03-28T01:26:51.190Z,6.87
2018-03-28T01:27:56.956Z,6.83
2018-03-28T01:29:02.900Z,6.82
2018-03-28T01:30:09.445Z,6.77
2018-03-28T01:31:15.199Z,6.74
2018-03-28T01:32:21.725Z,6.80
2018-03-28T01:33:27.484Z,6.82
2018-03-28T01:34:33.248Z,6.82
2018-03-28T01:35:39.784Z,6.76
2018-03-28T01:36:45.764Z,6.79
2018-03-28T01:37:52.295Z,6.74
2018-03-28T01:38:58.065Z,6.71
2018-03-28T01:40:03.584Z,6.72
2018-03-28T01:41:10.160Z,6.68
2018-03-28T01:42:16.736Z,6.66
2018-03-28T01:43:22.491Z,6.65
2018-03-28T01:44:28.251Z,6.63
2018-03-28T01:45:34.015Z,6.62
2018-03-28T01:46:39.792Z,6.57
2018-03-28T01:47:45.777Z,6.56
2018-03-28T01:48:51.526Z,6.56
2018-03-28T01:49:57.272Z,6.57
2018-03-28T01:51:02.800Z,6.59
2018-03-28T01:52:08.345Z,6.64
2018-03-28T01:53:14.155Z,6.66
2018-03-28T01:54:19.679Z,6.69
2018-03-28T01:55:25.433Z,6.66
2018-03-28T01:56:31.196Z,6.67
2018-03-28T01:57:36.971Z,6.72
2018-03-28T01:58:42.741Z,6.70
2018-03-28T01:59:48.500Z,6.70
2018-03-28T02:00:54.263Z,6.67
2018-03-28T02:02:00.013Z,6.67
2018-03-28T02:03:05.800Z,6.70
2018-03-28T02:04:12.313Z,6.65
2018-03-28T02:05:18.076Z,6.63
2018-03-28T02:06:23.824Z,6.58
2018-03-28T02:07:30.354Z,6.57
2018-03-28T02:08:36.129Z,6.53
2018-03-28T02:09:42.657Z,6.51
2018-03-28T02:10:48.461Z,6.44
2018-03-28T02:11:54.235Z,6.43
2018-03-28T02:12:59.994Z,6.42
2018-03-28T02:14:05.773Z,6.33
2018-03-28T02:15:12.288Z,6.38
2018-03-28T02:16:18.053Z,6.36
2018-03-28T02:17:24.582Z,6.38
2018-03-28T02:18:30.388Z,6.40
2018-03-28T02:19:36.169Z,6.39
2018-03-28T02:20:41.716Z,6.37
2018-03-28T02:21:47.483Z,6.38
2018-03-28T02:22:54.014Z,6.37
2018-03-28T02:23:59.789Z,6.36
2018-03-28T02:25:06.330Z,6.36
2018-03-28T02:26:12.094Z,6.38
2018-03-28T02:27:18.619Z,6.38
2018-03-28T02:28:24.371Z,6.38
2018-03-28T02:29:30.117Z,6.37
2018-03-28T02:30:35.898Z,6.37
2018-03-28T02:31:41.656Z,6.36
2018-03-28T02:32:47.418Z,6.36
2018-03-28T02:33:53.171Z,6.37
2018-03-28T02:34:58.939Z,6.38
2018-03-28T02:36:04.477Z,6.37
2018-03-28T02:37:10.998Z,6.41
2018-03-28T02:38:16.769Z,6.45
2018-03-28T02:39:22.529Z,6.44
2018-03-28T02:40:29.247Z,6.46
2018-03-28T02:41:35.024Z,6.47
2018-03-28T02:42:41.312Z,6.55
2018-03-28T02:43:47.079Z,6.54
2018-03-28T02:44:52.824Z,6.57
2018-03-28T02:45:58.567Z,6.57
2018-03-28T02:47:04.118Z,6.59
2018-03-28T02:48:09.872Z,6.61
2018-03-28T02:49:15.630Z,6.61
2018-03-28T02:50:22.142Z,6.66
2018-03-28T02:51:27.887Z,6.70
2018-03-28T02:52:33.656Z,6.69
2018-03-28T02:53:40.195Z,6.74
2018-03-28T02:54:45.722Z,6.70
2018-03-28T02:55:51.544Z,6.74
2018-03-28T02:56:57.343Z,6.76
2018-03-28T02:58:03.131Z,6.76
2018-03-28T02:59:08.885Z,6.84
2018-03-28T03:00:14.638Z,6.86
2018-03-28T03:01:20.410Z,6.88
2018-03-28T03:02:26.946Z,6.92
2018-03-28T03:03:32.714Z,6.89
2018-03-28T03:04:39.239Z,6.87
2018-03-28T03:05:44.993Z,6.85
2018-03-28T03:06:50.740Z,6.90
2018-03-28T03:07:57.341Z,6.98
2018-03-28T03:09:03.166Z,6.99
2018-03-28T03:10:09.676Z,6.96
2018-03-28T03:11:15.429Z,6.93
2018-03-28T03:12:21.173Z,6.88
2018-03-28T03:13:26.916Z,6.89
2018-03-28T03:14:32.694Z,6.87
2018-03-28T03:15:39.205Z,6.86
2018-03-28T03:16:44.972Z,6.85
2018-03-28T03:17:50.729Z,6.92
2018-03-28T03:18:57.242Z,7.00
2018-03-28T03:20:03.032Z,6.96
2018-03-28T03:21:09.539Z,6.91
2018-03-28T03:22:15.282Z,6.92
2018-03-28T03:23:21.028Z,6.87
2018-03-28T03:24:26.786Z,6.88
2018-03-28T03:25:32.595Z,6.86
2018-03-28T03:26:38.368Z,6.87
2018-03-28T03:27:44.118Z,6.87
2018-03-28T03:28:49.865Z,6.83
2018-03-28T03:29:55.618Z,6.87
2018-03-28T03:31:02.172Z,6.91
2018-03-28T03:32:07.913Z,6.91
2018-03-28T03:33:13.687Z,6.91
2018-03-28T03:34:20.201Z,6.92
2018-03-28T03:35:26.001Z,6.94
2018-03-28T03:36:31.572Z,6.94
2018-03-28T03:37:37.509Z,6.94
2018-03-28T03:38:43.261Z,6.97
2018-03-28T03:39:49.011Z,6.96
2018-03-28T03:40:54.766Z,6.99
2018-03-28T03:42:01.324Z,7.02
2018-03-28T03:43:07.083Z,7.01
2018-03-28T03:44:13.614Z,7.04
2018-03-28T03:45:20.129Z,7.05
2018-03-28T03:46:25.883Z,6.98
2018-03-28T03:47:31.650Z,7.01
2018-03-28T03:48:37.406Z,7.02
2018-03-28T03:49:43.951Z,7.01
2018-03-28T03:50:49.712Z,7.06
2018-03-28T03:51:55.476Z,7.04
2018-03-28T03:53:02.014Z,7.06
2018-03-28T03:54:07.790Z,7.07
2018-03-28T03:55:13.533Z,7.06
2018-03-28T03:56:19.424Z,7.08
2018-03-28T03:57:25.176Z,7.09
2018-03-28T03:58:32.466Z,7.12
2018-03-28T03:59:38.990Z,7.12
2018-03-28T04:00:44.791Z,7.13
2018-03-28T04:01:50.830Z,7.15
2018-03-28T04:02:57.342Z,7.17
2018-03-28T04:04:03.143Z,7.21
2018-03-28T04:05:08.953Z,7.23
2018-03-28T04:06:14.712Z,7.25
2018-03-28T04:07:21.229Z,7.25
2018-03-28T04:08:26.988Z,7.24
2018-03-28T04:09:32.746Z,7.22
2018-03-28T04:10:39.265Z,7.24
2018-03-28T04:11:45.018Z,7.24
2018-03-28T04:12:50.770Z,7.29
2018-03-28T04:13:57.298Z,7.30
2018-03-28T04:15:03.073Z,7.32
2018-03-28T04:16:08.511Z,7.33
2018-03-28T04:17:14.258Z,7.32
2018-03-28T04:18:20.847Z,7.32
2018-03-28T04:19:26.581Z,7.35
2018-03-28T04:20:33.665Z,7.35
2018-03-28T04:21:39.659Z,7.38
2018-03-28T04:22:47.193Z,7.39
2018-03-28T04:23:53.073Z,7.41
2018-03-28T04:24:59.398Z,7.43
2018-03-28T04:26:05.559Z,7.49
2018-03-28T04:27:11.709Z,7.55
2018-03-28T04:28:17.828Z,7.55
2018-03-28T04:29:23.901Z,7.56
2018-03-28T04:30:29.873Z,7.62
2018-03-28T04:31:35.736Z,7.56
2018-03-28T04:32:41.557Z,7.62
2018-03-28T04:33:47.388Z,7.61
2018-03-28T04:34:53.138Z,7.67
2018-03-28T04:35:58.892Z,7.71
2018-03-28T04:37:04.667Z,7.72
2018-03-28T04:38:11.197Z,7.74
2018-03-28T04:39:16.952Z,7.67
2018-03-28T04:40:22.724Z,7.67
2018-03-28T04:41:28.476Z,7.67
2018-03-28T04:42:34.253Z,7.68
2018-03-28T04:43:40.006Z,7.67
2018-03-28T04:44:45.766Z,7.69
2018-03-28T04:45:51.543Z,7.68
2018-03-28T04:46:57.300Z,7.68
2018-03-28T04:48:03.084Z,7.71
2018-03-28T04:49:08.824Z,7.71
2018-03-28T04:50:14.593Z,7.72
2018-03-28T04:51:20.914Z,7.71
2018-03-28T04:52:28.180Z,7.69
2018-03-28T04:53:33.960Z,7.66
2018-03-28T04:54:40.513Z,7.63
2018-03-28T04:55:47.112Z,7.63
2018-03-28T04:56:53.806Z,7.63
2018-03-28T04:57:59.568Z,7.58
2018-03-28T04:59:05.371Z,7.57
2018-03-28T05:00:11.130Z,7.55
2018-03-28T05:01:16.872Z,7.54
2018-03-28T05:02:22.617Z,7.58
2018-03-28T05:03:28.374Z,7.55
2018-03-28T05:04:34.157Z,7.56
2018-03-28T05:05:39.901Z,7.53
2018-03-28T05:06:45.664Z,7.53
2018-03-28T05:07:51.413Z,7.54
2018-03-28T05:08:57.167Z,7.56
2018-03-28T05:10:02.934Z,7.48
2018-03-28T05:11:08.811Z,7.51
2018-03-28T05:12:14.565Z,7.51
2018-03-28T05:13:20.352Z,7.52
2018-03-28T05:14:26.150Z,7.52
2018-03-28T05:15:31.996Z,7.53
2018-03-28T05:16:37.749Z,7.53
2018-03-28T05:17:43.516Z,7.47
2018-03-28T05:18:49.283Z,7.45
2018-03-28T05:19:55.809Z,7.46
2018-03-28T05:21:01.605Z,7.45
2018-03-28T05:22:08.127Z,7.45
2018-03-28T05:23:13.686Z,7.49
2018-03-28T05:24:20.225Z,7.47
2018-03-28T05:25:25.973Z,7.47
2018-03-28T05:26:32.530Z,7.47
2018-03-28T05:27:38.293Z,7.45
2018-03-28T05:28:44.809Z,7.45
2018-03-28T05:29:50.562Z,7.43
2018-03-28T05:30:56.847Z,7.44
2018-03-28T05:32:02.641Z,7.44
2018-03-28T05:33:08.392Z,7.44
2018-03-28T05:34:13.913Z,7.43
2018-03-28T05:35:19.665Z,7.44
2018-03-28T05:36:25.186Z,7.41
2018-03-28T05:37:30.974Z,7.38
2018-03-28T05:38:37.500Z,7.38
2018-03-28T05:39:43.251Z,7.37
2018-03-28T05:40:48.997Z,7.41
2018-03-28T05:41:54.759Z,7.41
2018-03-28T05:43:01.301Z,7.40
2018-03-28T05:44:08.571Z,7.37
2018-03-28T05:45:15.092Z,7.40
2018-03-28T05:46:20.877Z,7.44
2018-03-28T05:47:30.439Z,7.44
2018-03-28T05:48:36.997Z,7.42
2018-03-28T05:49:43.660Z,7.44
2018-03-28T05:50:49.516Z,7.45
2018-03-28T05:51:56.022Z,7.43
2018-03-28T05:53:01.819Z,7.42
2018-03-28T05:54:07.584Z,7.41
2018-03-28T05:55:13.336Z,7.42
2018-03-28T05:56:18.777Z,7.45
2018-03-28T05:57:24.529Z,7.52
2018-03-28T05:58:30.416Z,7.62
2018-03-28T05:59:39.441Z,7.67
2018-03-28T06:00:45.196Z,7.71
2018-03-28T06:01:50.984Z,7.77
2018-03-28T06:02:56.745Z,7.81
2018-03-28T06:04:03.269Z,7.83
2018-03-28T06:05:09.050Z,7.87
2018-03-28T06:06:15.580Z,7.86
2018-03-28T06:07:21.408Z,7.86
2018-03-28T06:08:28.074Z,7.88
2018-03-28T06:09:33.842Z,7.86
2018-03-28T06:10:39.610Z,7.86
2018-03-28T06:11:45.369Z,7.87
2018-03-28T06:12:51.146Z,7.87
2018-03-28T06:13:56.943Z,7.87
2018-03-28T06:15:03.643Z,7.87
2018-03-28T06:16:09.081Z,7.85
2018-03-28T06:17:14.862Z,7.84
2018-03-28T06:18:20.604Z,7.85
2018-03-28T06:19:27.120Z,7.85
2018-03-28T06:20:32.914Z,7.84
2018-03-28T06:21:38.750Z,7.82
2018-03-28T06:22:45.275Z,7.82
2018-03-28T06:23:51.038Z,7.83
2018-03-28T06:24:57.248Z,7.86
2018-03-28T06:26:03.006Z,7.85
2018-03-28T06:27:08.776Z,7.85
2018-03-28T06:28:14.531Z,7.88
2018-03-28T06:29:21.110Z,7.86
2018-03-28T06:30:26.853Z,7.81
2018-03-28T06:31:32.602Z,7.79
2018-03-28T06:32:38.433Z,7.79
2018-03-28T06:33:44.274Z,7.79
2018-03-28T06:34:50.026Z,7.76
2018-03-28T06:35:55.786Z,7.76
2018-03-28T06:37:01.297Z,7.77
2018-03-28T06:38:07.057Z,7.79
2018-03-28T06:39:12.875Z,7.85
2018-03-28T06:40:19.390Z,7.84
2018-03-28T06:41:25.164Z,7.79
2018-03-28T06:42:30.930Z,7.77
2018-03-28T06:43:37.474Z,7.74
2018-03-28T06:44:44.041Z,7.72
2018-03-28T06:45:49.781Z,7.70
2018-03-28T06:46:55.541Z,7.72
2018-03-28T06:48:01.320Z,7.73
2018-03-28T06:49:07.122Z,7.74
2018-03-28T06:50:12.874Z,7.70
2018-03-28T06:51:18.640Z,7.73
2018-03-28T06:52:24.386Z,7.74
2018-03-28T06:53:31.677Z,7.77
2018-03-28T06:54:38.508Z,7.78
2018-03-28T06:55:44.254Z,7.81
2018-03-28T06:56:50.018Z,7.88
2018-03-28T06:57:55.777Z,7.87
2018-03-28T06:59:01.537Z,7.92
2018-03-28T07:00:08.086Z,7.99
2018-03-28T07:01:14.633Z,8.01
2018-03-28T07:02:20.422Z,8.05
2018-03-28T07:03:26.176Z,8.09
2018-03-28T07:04:31.921Z,8.16
2018-03-28T07:05:37.699Z,8.25
2018-03-28T07:06:43.440Z,8.30
2018-03-28T07:07:49.205Z,8.38
2018-03-28T07:08:54.972Z,8.42
2018-03-28T07:10:00.717Z,8.41
2018-03-28T07:11:06.503Z,8.43
2018-03-28T07:12:13.109Z,8.51
2018-03-28T07:13:18.878Z,8.54
2018-03-28T07:14:24.632Z,8.63
2018-03-28T07:15:30.468Z,8.74
2018-03-28T07:16:36.243Z,8.79
2018-03-28T07:17:42.534Z,8.77
2018-03-28T07:18:48.285Z,8.83
2018-03-28T07:19:54.035Z,8.80
2018-03-28T07:21:00.662Z,8.81
2018-03-28T07:22:07.197Z,8.84
2018-03-28T07:23:12.945Z,8.87
2018-03-28T07:24:19.225Z,8.89
2018-03-28T07:25:24.985Z,8.87
2018-03-28T07:26:30.749Z,8.89
2018-03-28T07:27:36.281Z,8.94
2018-03-28T07:28:42.029Z,9.00
2018-03-28T07:29:47.768Z,9.06
2018-03-28T07:30:53.556Z,9.12
2018-03-28T07:32:00.082Z,9.11
2018-03-28T07:33:05.848Z,9.09
2018-03-28T07:34:12.361Z,9.13
2018-03-28T07:35:18.101Z,9.15
2018-03-28T07:36:23.987Z,9.13
2018-03-28T07:37:29.725Z,9.10
2018-03-28T07:38:36.389Z,9.16
2018-03-28T07:39:42.916Z,9.21
2018-03-28T07:40:48.673Z,9.18
2018-03-28T07:41:54.089Z,9.18
2018-03-28T07:42:59.841Z,9.21
2018-03-28T07:44:05.644Z,9.32
2018-03-28T07:45:11.401Z,9.38
2018-03-28T07:46:17.163Z,9.45
2018-03-28T07:47:22.909Z,9.37
2018-03-28T07:48:28.661Z,9.40
2018-03-28T07:49:34.447Z,9.43
2018-03-28T07:50:40.223Z,9.44
2018-03-28T07:51:45.972Z,9.46
2018-03-28T07:52:51.733Z,9.46
2018-03-28T07:53:57.489Z,9.47
2018-03-28T07:55:03.808Z,9.56
2018-03-28T07:56:09.736Z,9.58
2018-03-28T07:57:15.500Z,9.55
2018-03-28T07:58:21.241Z,9.53
2018-03-28T07:59:27.068Z,9.57
2018-03-28T08:00:32.864Z,9.60
2018-03-28T08:01:38.613Z,9.53
2018-03-28T08:02:44.366Z,9.52
2018-03-28T08:03:50.175Z,9.53
2018-03-28T08:04:55.863Z,9.55
2018-03-28T08:06:01.624Z,9.57
2018-03-28T08:07:08.308Z,9.61
2018-03-28T08:08:14.070Z,9.62
2018-03-28T08:09:20.626Z,9.63
2018-03-28T08:10:27.142Z,9.63
2018-03-28T08:11:32.914Z,9.60
2018-03-28T08:12:38.656Z,9.60
2018-03-28T08:13:45.174Z,9.58
2018-03-28T08:14:50.969Z,9.58
2018-03-28T08:15:57.479Z,9.60
2018-03-28T08:17:03.257Z,9.67
2018-03-28T08:18:09.008Z,9.72
2018-03-28T08:19:15.574Z,9.70
2018-03-28T08:20:21.477Z,9.71
2018-03-28T08:21:27.216Z,9.70
2018-03-28T08:22:32.984Z,9.68
2018-03-28T08:23:38.725Z,9.68
2018-03-28T08:24:44.477Z,9.65
2018-03-28T08:25:50.225Z,9.62
2018-03-28T08:26:56.738Z,9.57
2018-03-28T08:28:02.525Z,9.55
2018-03-28T08:29:09.040Z,9.56
2018-03-28T08:30:14.781Z,9.52
2018-03-28T08:31:20.542Z,9.50
2018-03-28T08:32:27.797Z,9.47
2018-03-28T08:33:33.576Z,9.45
2018-03-28T08:34:39.312Z,9.47
2018-03-28T08:35:45.060Z,9.43
2018-03-28T08:36:51.598Z,9.47
2018-03-28T08:37:57.100Z,9.47
2018-03-28T08:39:02.888Z,9.51
2018-03-28T08:40:08.632Z,9.51
2018-03-28T08:41:14.613Z,9.54
2018-03-28T08:42:20.356Z,9.61
2018-03-28T08:43:26.109Z,9.65
2018-03-28T08:44:31.897Z,9.67
2018-03-28T08:45:37.645Z,9.70
2018-03-28T08:46:44.164Z,9.75
2018-03-28T08:47:49.918Z,9.75
2018-03-28T08:48:55.660Z,9.78
2018-03-28T08:50:01.445Z,9.83
2018-03-28T08:51:07.962Z,9.86
2018-03-28T08:52:13.755Z,9.91
2018-03-28T08:53:19.688Z,9.97
2018-03-28T08:54:25.900Z,10.11
2018-03-28T08:55:31.717Z,10.24
2018-03-28T08:56:37.476Z,10.37
2018-03-28T08:57:43.241Z,10.47
2018-03-28T08:58:48.996Z,10.56
2018-03-28T08:59:54.748Z,10.69
2018-03-28T09:01:01.304Z,10.82
2018-03-28T09:02:07.816Z,10.88
2018-03-28T09:03:13.585Z,10.91
2018-03-28T09:04:20.112Z,10.91
2018-03-28T09:05:25.874Z,10.96
2018-03-28T09:06:31.648Z,10.98
2018-03-28T09:07:38.291Z,11.04
2018-03-28T09:08:44.204Z,11.03
2018-03-28T09:09:49.970Z,11.05
2018-03-28T09:10:55.727Z,11.10
2018-03-28T09:12:01.513Z,11.12
2018-03-28T09:13:07.607Z,11.15
2018-03-28T09:14:13.366Z,11.15
2018-03-28T09:15:19.127Z,11.16
2018-03-28T09:16:25.657Z,11.23
2018-03-28T09:17:31.447Z,11.32
2018-03-28T09:18:37.210Z,11.39
2018-03-28T09:19:42.960Z,11.50
2018-03-28T09:20:48.730Z,11.65
2018-03-28T09:21:54.498Z,11.81
2018-03-28T09:23:01.049Z,11.95
2018-03-28T09:24:07.579Z,12.13
2018-03-28T09:25:13.330Z,12.25
2018-03-28T09:26:19.520Z,12.36
2018-03-28T09:27:25.289Z,12.41
2018-03-28T09:28:31.060Z,12.40
2018-03-28T09:29:36.884Z,12.34
2018-03-28T09:30:42.824Z,12.24
2018-03-28T09:31:48.586Z,12.17
2018-03-28T09:32:54.344Z,12.20
2018-03-28T09:34:00.158Z,12.29
2018-03-28T09:35:05.906Z,12.41
2018-03-28T09:36:11.662Z,12.54
2018-03-28T09:37:18.942Z,12.70
2018-03-28T09:38:24.697Z,12.82
2018-03-28T09:39:31.244Z,12.93
2018-03-28T09:40:37.902Z,12.95
2018-03-28T09:41:43.812Z,12.95
2018-03-28T09:42:49.569Z,13.06
2018-03-28T09:43:55.318Z,13.21
2018-03-28T09:45:01.106Z,13.33
2018-03-28T09:46:07.847Z,13.41
2018-03-28T09:47:15.104Z,13.51
2018-03-28T09:48:21.302Z,13.51
2018-03-28T09:49:27.064Z,13.46
2018-03-28T09:50:32.852Z,13.35
2018-03-28T09:51:38.621Z,13.23
2018-03-28T09:52:45.185Z,13.22
2018-03-28T09:53:51.009Z,13.17
2018-03-28T09:54:57.532Z,13.12
2018-03-28T09:56:03.332Z,13.08
2018-03-28T09:57:09.272Z,13.12
2018-03-28T09:58:15.808Z,13.09
2018-03-28T09:59:21.578Z,12.99
2018-03-28T10:00:27.881Z,12.89
2018-03-28T10:01:33.428Z,12.75
2018-03-28T10:02:44.076Z,12.67
2018-03-28T10:03:50.517Z,12.67
2018-03-28T10:05:00.114Z,12.67
2018-03-28T10:06:06.642Z,12.58
2018-03-28T10:07:12.422Z,12.54
2018-03-28T10:08:18.944Z,12.43
2018-03-28T10:09:24.710Z,12.39
2018-03-28T10:10:30.466Z,12.29
2018-03-28T10:11:36.660Z,12.25
2018-03-28T10:12:42.437Z,12.21
2018-03-28T10:13:48.191Z,12.16
2018-03-28T10:14:54.730Z,12.22
2018-03-28T10:16:00.701Z,12.24
2018-03-28T10:17:06.895Z,12.28
2018-03-28T10:18:12.674Z,12.39
2018-03-28T10:19:18.433Z,12.52
2018-03-28T10:20:24.194Z,12.63
2018-03-28T10:21:29.944Z,12.77
2018-03-28T10:22:36.467Z,12.91
2018-03-28T10:23:42.254Z,13.01
2018-03-28T10:24:48.009Z,13.13
2018-03-28T10:25:53.777Z,13.07
2018-03-28T10:26:59.545Z,13.10
2018-03-28T10:28:05.304Z,13.09
2018-03-28T10:29:11.081Z,13.13
2018-03-28T10:30:16.852Z,13.18
2018-03-28T10:31:22.611Z,13.22
2018-03-28T10:32:28.395Z,13.24
2018-03-28T10:33:33.930Z,13.14
2018-03-28T10:34:40.500Z,12.98
2018-03-28T10:35:45.921Z,12.98
2018-03-28T10:36:52.446Z,12.96
2018-03-28T10:37:58.200Z,12.90
2018-03-28T10:39:03.935Z,12.78
2018-03-28T10:40:09.751Z,12.71
2018-03-28T10:41:15.529Z,12.69
2018-03-28T10:42:21.314Z,12.68
2018-03-28T10:43:27.298Z,12.72
2018-03-28T10:44:33.076Z,12.74
2018-03-28T10:45:39.626Z,12.74
2018-03-28T10:46:46.159Z,12.75
2018-03-28T10:47:52.065Z,12.73
2018-03-28T10:48:58.234Z,12.65
2018-03-28T10:50:03.996Z,12.58
2018-03-28T10:51:09.814Z,12.63
2018-03-28T10:52:15.592Z,12.70
2018-03-28T10:53:22.873Z,12.77
2018-03-28T10:54:28.490Z,12.79
2018-03-28T10:55:35.834Z,12.79
2018-03-28T10:56:41.647Z,12.78
2018-03-28T10:57:48.236Z,12.77
2018-03-28T10:58:54.075Z,12.70
2018-03-28T11:00:00.625Z,12.69
2018-03-28T11:01:06.394Z,12.73
2018-03-28T11:02:12.214Z,12.74
2018-03-28T11:03:17.988Z,12.74
2018-03-28T11:04:23.758Z,12.70
2018-03-28T11:05:29.537Z,12.63
2018-03-28T11:06:35.311Z,12.52
2018-03-28T11:07:41.118Z,12.43
2018-03-28T11:08:46.895Z,12.31
2018-03-28T11:09:52.706Z,12.31
2018-03-28T11:10:58.485Z,12.29
2018-03-28T11:12:04.259Z,12.31
2018-03-28T11:13:10.068Z,12.27
2018-03-28T11:14:15.851Z,12.27
2018-03-28T11:15:22.406Z,12.32
2018-03-28T11:16:28.958Z,12.33
2018-03-28T11:17:34.744Z,12.34
2018-03-28T11:18:40.553Z,12.41
2018-03-28T11:19:47.123Z,12.41
2018-03-28T11:20:53.708Z,12.46
2018-03-28T11:21:59.482Z,12.47
2018-03-28T11:23:05.257Z,12.50
2018-03-28T11:24:11.062Z,12.56
2018-03-28T11:25:16.851Z,12.55
2018-03-28T11:26:23.395Z,12.52
2018-03-28T11:27:29.166Z,12.39
2018-03-28T11:28:34.945Z,12.39
2018-03-28T11:29:40.751Z,12.37
2018-03-28T11:30:46.618Z,12.36
2018-03-28T11:31:53.327Z,12.29
2018-03-28T11:32:59.126Z,12.29
2018-03-28T11:34:04.900Z,12.30
2018-03-28T11:35:10.722Z,12.32
2018-03-28T11:36:16.541Z,12.35
2018-03-28T11:37:22.330Z,12.43
2018-03-28T11:38:28.106Z,12.51
2018-03-28T11:39:34.753Z,12.56
2018-03-28T11:40:40.566Z,12.64
2018-03-28T11:41:46.349Z,12.75
2018-03-28T11:42:52.911Z,12.77
2018-03-28T11:43:59.450Z,12.91
2018-03-28T11:45:04.654Z,12.97
2018-03-28T11:46:10.362Z,13.08
2018-03-28T11:47:18.590Z,13.18
2018-03-28T11:48:24.366Z,13.21
2018-03-28T11:49:30.134Z,13.23
2018-03-28T11:50:35.913Z,13.24
2018-03-28T11:51:41.725Z,13.29
2018-03-28T11:52:47.510Z,13.23
2018-03-28T11:53:53.290Z,13.23
2018-03-28T11:54:59.877Z,13.24
2018-03-28T11:56:05.351Z,13.24
2018-03-28T11:57:11.146Z,13.13
2018-03-28T11:58:21.645Z,13.06
2018-03-28T11:59:27.859Z,13.02
2018-03-28T12:00:33.647Z,12.99
2018-03-28T12:01:39.441Z,12.95
2018-03-28T12:02:45.294Z,13.02
2018-03-28T12:03:51.100Z,13.06
2018-03-28T12:04:56.890Z,13.07
2018-03-28T12:06:02.717Z,13.11
2018-03-28T12:07:09.317Z,13.09
2018-03-28T12:08:16.278Z,13.12
2018-03-28T12:09:22.088Z,13.18
2018-03-28T12:10:27.884Z,13.20
2018-03-28T12:11:33.674Z,13.26
2018-03-28T12:12:39.465Z,13.37
2018-03-28T12:13:45.287Z,13.42
2018-03-28T12:14:51.059Z,13.48
2018-03-28T12:15:57.686Z,13.63
2018-03-28T12:17:03.682Z,13.64
2018-03-28T12:18:10.222Z,13.70
2018-03-28T12:19:16.026Z,13.82
2018-03-28T12:20:21.816Z,13.96
2018-03-28T12:21:27.606Z,14.05
2018-03-28T12:22:33.383Z,14.05
2018-03-28T12:23:39.156Z,14.06
2018-03-28T12:24:45.717Z,14.16
2018-03-28T12:25:52.259Z,14.04
2018-03-28T12:26:58.051Z,13.96
2018-03-28T12:28:03.901Z,13.92
2018-03-28T12:29:09.868Z,13.89
2018-03-28T12:30:15.776Z,13.85
2018-03-28T12:31:21.571Z,13.80
2018-03-28T12:32:27.346Z,13.72
2018-03-28T12:33:33.171Z,13.73
2018-03-28T12:34:39.148Z,13.79
2018-03-28T12:35:44.943Z,13.77
2018-03-28T12:36:50.746Z,13.76
2018-03-28T12:37:56.753Z,13.69
2018-03-28T12:39:03.071Z,13.61
2018-03-28T12:40:08.857Z,13.63
2018-03-28T12:41:15.439Z,13.67
2018-03-28T12:42:21.231Z,13.72
2018-03-28T12:43:27.019Z,13.76
2018-03-28T12:44:32.790Z,13.77
2018-03-28T12:45:38.565Z,13.75
2018-03-28T12:46:45.147Z,13.74
2018-03-28T12:47:51.690Z,13.82
2018-03-28T12:48:57.468Z,13.89
2018-03-28T12:50:03.274Z,13.91
2018-03-28T12:51:09.246Z,13.99
2018-03-28T12:52:15.866Z,14.03
2018-03-28T12:53:21.793Z,13.95
2018-03-28T12:54:27.553Z,13.94
2018-03-28T12:55:33.387Z,13.96
2018-03-28T12:56:39.336Z,13.98
2018-03-28T12:57:45.133Z,13.98
2018-03-28T12:58:50.906Z,13.93
2018-03-28T12:59:56.690Z,13.95
2018-03-28T13:01:02.650Z,14.00
2018-03-28T13:02:09.178Z,14.09
2018-03-28T13:03:14.967Z,14.17
2018-03-28T13:04:20.720Z,14.19
2018-03-28T13:05:26.495Z,14.24
2018-03-28T13:06:32.252Z,14.25
2018-03-28T13:07:38.012Z,14.18
2018-03-28T13:08:44.595Z,14.07
2018-03-28T13:09:50.351Z,14.05
2018-03-28T13:10:56.125Z,14.07
2018-03-28T13:12:01.889Z,14.07
2018-03-28T13:13:07.649Z,14.00
2018-03-28T13:14:14.227Z,13.92
2018-03-28T13:15:19.995Z,13.75
2018-03-28T13:16:25.761Z,13.58
2018-03-28T13:17:31.516Z,13.42
2018-03-28T13:18:37.275Z,13.26
2018-03-28T13:19:43.064Z,13.14
2018-03-28T13:20:48.820Z,13.05
2018-03-28T13:21:54.583Z,12.94
2018-03-28T13:23:00.348Z,12.86
2018-03-28T13:24:05.787Z,12.78
2018-03-28T13:25:12.093Z,12.68
2018-03-28T13:26:17.900Z,12.62
2018-03-28T13:27:23.652Z,12.48
2018-03-28T13:28:29.412Z,12.36
2018-03-28T13:29:35.168Z,12.25
2018-03-28T13:30:40.976Z,12.18
2018-03-28T13:31:46.728Z,12.00
2018-03-28T13:32:52.495Z,11.89
2018-03-28T13:33:58.292Z,11.83
2018-03-28T13:35:04.041Z,11.80
2018-03-28T13:36:10.770Z,11.78
2018-03-28T13:37:17.297Z,11.75
2018-03-28T13:38:23.191Z,11.71
2018-03-28T13:39:28.956Z,11.70
2018-03-28T13:40:34.705Z,11.69
2018-03-28T13:41:40.490Z,11.67
2018-03-28T13:42:47.012Z,11.66
2018-03-28T13:43:52.768Z,11.65
2018-03-28T13:44:58.532Z,11.62
2018-03-28T13:46:04.820Z,11.62
2018-03-28T13:47:10.616Z,11.59
2018-03-28T13:48:16.177Z,11.58
2018-03-28T13:49:21.941Z,11.54
2018-03-28T13:50:27.719Z,11.49
2018-03-28T13:51:33.486Z,11.49
2018-03-28T13:52:39.276Z,11.40
2018-03-28T13:53:45.035Z,11.38
2018-03-28T13:54:50.788Z,11.36
2018-03-28T13:55:56.553Z,11.34
2018-03-28T13:57:02.322Z,11.25
2018-03-28T13:58:08.141Z,11.14
2018-03-28T13:59:13.884Z,10.99
2018-03-28T14:00:20.342Z,10.90
2018-03-28T14:01:26.927Z,10.81
2018-03-28T14:02:32.688Z,10.73
2018-03-28T14:03:38.573Z,10.68
2018-03-28T14:04:46.814Z,10.68
2018-03-28T14:05:52.246Z,10.69
2018-03-28T14:06:58.023Z,10.73
2018-03-28T14:08:03.811Z,10.74
2018-03-28T14:09:10.373Z,10.76
2018-03-28T14:10:16.901Z,10.81
2018-03-28T14:11:22.678Z,10.85
2018-03-28T14:12:28.445Z,10.90
2018-03-28T14:13:34.216Z,10.96
2018-03-28T14:14:40.010Z,10.97
2018-03-28T14:15:45.786Z,11.00
2018-03-28T14:16:53.138Z,11.05
2018-03-28T14:17:58.930Z,11.07
2018-03-28T14:19:04.727Z,11.09
2018-03-28T14:20:10.518Z,11.13
2018-03-28T14:21:16.290Z,11.21
2018-03-28T14:22:22.842Z,11.29
2018-03-28T14:23:29.447Z,11.34
2018-03-28T14:24:35.260Z,11.34
2018-03-28T14:25:41.058Z,11.38
2018-03-28T14:26:46.828Z,11.45
2018-03-28T14:27:53.421Z,11.50